createdAt,value
2017-05-11T00:00:01.139Z,12.70
2017-05-11T00:02:29.427Z,12.70
2017-05-11T00:04:57.699Z,12.70
2017-05-11T00:07:26.007Z,12.60
2017-05-11T00:09:54.284Z,12.60
2017-05-11T00:12:22.559Z,12.60
2017-05-11T00:14:50.895Z,12.60
2017-05-11T00:17:19.679Z,12.50
2017-05-11T00:19:48.059Z,12.50
2017-05-11T00:22:16.440Z,12.50
2017-05-11T00:24:44.748Z,12.50
2017-05-11T00:27:13.093Z,12.50
2017-05-11T00:29:41.673Z,12.50
2017-05-11T00:32:09.944Z,12.40
2017-05-11T00:34:38.328Z,12.50
2017-05-11T00:37:06.656Z,12.40
2017-05-11T00:39:35.668Z,12.40
2017-05-11T00:42:04.079Z,12.40
2017-05-11T00:44:32.963Z,12.30
2017-05-11T00:47:01.255Z,12.30
2017-05-11T00:49:29.563Z,12.30
2017-05-11T00:51:57.842Z,12.30
2017-05-11T00:54:26.855Z,12.20
2017-05-11T00:56:55.780Z,12.20
2017-05-11T00:59:24.161Z,12.20
2017-05-11T01:01:52.545Z,12.20
2017-05-11T01:04:20.851Z,12.20
2017-05-11T01:06:49.191Z,12.20
2017-05-11T01:09:17.503Z,12.20
2017-05-11T01:11:46.446Z,12.20
2017-05-11T01:14:14.731Z,12.20
2017-05-11T01:16:43.004Z,12.10
2017-05-11T01:19:11.287Z,12.10
2017-05-11T01:21:40.206Z,12.10
2017-05-11T01:24:08.507Z,12.00
2017-05-11T01:26:37.999Z,12.10
2017-05-11T01:29:06.335Z,12.20
2017-05-11T01:31:35.156Z,12.10
2017-05-11T01:34:03.451Z,12.10
2017-05-11T01:36:32.463Z,12.10
2017-05-11T01:39:00.747Z,12.10
2017-05-11T01:41:29.762Z,12.20
2017-05-11T01:43:58.072Z,12.20
2017-05-11T01:46:26.342Z,12.10
2017-05-11T01:48:54.615Z,12.10
2017-05-11T01:51:22.978Z,12.10
2017-05-11T01:53:51.344Z,11.90
2017-05-11T01:56:19.724Z,12.00
2017-05-11T01:58:48.000Z,12.00
2017-05-11T02:01:16.291Z,12.00
2017-05-11T02:03:44.823Z,12.00
2017-05-11T02:06:13.116Z,11.90
2017-05-11T02:08:41.391Z,11.90
2017-05-11T02:11:09.700Z,11.90
2017-05-11T02:13:38.056Z,11.80
2017-05-11T02:16:06.331Z,11.80
2017-05-11T02:18:34.620Z,11.80
2017-05-11T02:21:02.892Z,11.90
2017-05-11T02:23:31.180Z,11.70
2017-05-11T02:25:59.540Z,11.70
2017-05-11T02:28:27.919Z,11.70
2017-05-11T02:30:56.195Z,11.70
2017-05-11T02:33:24.478Z,11.70
2017-05-11T02:35:52.748Z,11.70
2017-05-11T02:38:21.034Z,11.70
2017-05-11T02:40:49.310Z,11.70
2017-05-11T02:43:17.611Z,11.60
2017-05-11T02:45:45.943Z,11.60
2017-05-11T02:48:14.251Z,11.60
2017-05-11T02:50:42.528Z,11.60
2017-05-11T02:53:10.801Z,11.50
2017-05-11T02:55:39.096Z,11.50
2017-05-11T02:58:07.371Z,11.50
2017-05-11T03:00:36.404Z,11.50
2017-05-11T03:03:04.709Z,11.50
2017-05-11T03:05:32.995Z,11.50
2017-05-11T03:08:01.427Z,11.50
2017-05-11T03:10:29.736Z,11.40
2017-05-11T03:12:58.899Z,11.40
2017-05-11T03:15:27.199Z,11.40
2017-05-11T03:17:55.488Z,11.30
2017-05-11T03:20:23.759Z,11.30
2017-05-11T03:22:52.242Z,11.20
2017-05-11T03:25:20.516Z,11.10
2017-05-11T03:27:49.091Z,11.00
2017-05-11T03:30:17.373Z,11.00
2017-05-11T03:32:45.747Z,11.00
2017-05-11T03:35:14.743Z,11.00
2017-05-11T03:37:43.035Z,11.00
2017-05-11T03:40:11.396Z,11.00
2017-05-11T03:42:39.696Z,10.90
2017-05-11T03:45:08.763Z,10.90
2017-05-11T03:47:37.036Z,11.00
2017-05-11T03:50:05.421Z,11.00
2017-05-11T03:52:33.696Z,11.10
2017-05-11T03:55:01.987Z,11.10
2017-05-11T03:57:30.348Z,11.00
2017-05-11T03:59:58.732Z,10.90
2017-05-11T04:02:27.007Z,10.80
2017-05-11T04:04:55.299Z,10.80
2017-05-11T04:07:23.582Z,10.80
2017-05-11T04:09:51.861Z,10.90
2017-05-11T04:12:20.153Z,10.90
2017-05-11T04:14:49.164Z,10.90
2017-05-11T04:17:18.247Z,11.00
2017-05-11T04:19:47.267Z,11.00
2017-05-11T04:22:15.568Z,11.00
2017-05-11T04:24:43.943Z,10.90
2017-05-11T04:27:12.319Z,10.90
2017-05-11T04:29:40.700Z,11.00
2017-05-11T04:32:09.085Z,11.00
2017-05-11T04:34:37.360Z,11.10
2017-05-11T04:37:05.732Z,10.90
2017-05-11T04:39:34.118Z,11.00
2017-05-11T04:42:02.391Z,11.00
2017-05-11T04:44:30.682Z,11.10
2017-05-11T04:46:58.956Z,11.10
2017-05-11T04:49:27.244Z,11.20
2017-05-11T04:51:55.587Z,11.20
2017-05-11T04:54:23.962Z,11.30
2017-05-11T04:56:52.231Z,11.30
2017-05-11T04:59:20.529Z,11.40
2017-05-11T05:01:48.799Z,11.50
2017-05-11T05:04:17.088Z,11.60
2017-05-11T05:06:45.363Z,11.70
2017-05-11T05:09:13.659Z,11.70
2017-05-11T05:11:41.927Z,11.80
2017-05-11T05:14:10.275Z,11.90
2017-05-11T05:16:38.548Z,11.90
2017-05-11T05:19:06.819Z,12.00
2017-05-11T05:21:35.105Z,12.10
2017-05-11T05:24:03.375Z,12.20
2017-05-11T05:26:31.765Z,12.30
2017-05-11T05:29:00.136Z,12.50
2017-05-11T05:31:28.423Z,12.60
2017-05-11T05:33:56.797Z,12.70
2017-05-11T05:36:25.099Z,12.80
2017-05-11T05:38:53.372Z,13.00
2017-05-11T05:41:21.639Z,13.10
2017-05-11T05:43:49.927Z,13.20
2017-05-11T05:46:18.199Z,13.30
2017-05-11T05:48:46.487Z,13.30
2017-05-11T05:51:14.825Z,13.40
2017-05-11T05:53:43.115Z,13.40
2017-05-11T05:56:11.385Z,13.40
2017-05-11T05:58:39.680Z,13.50
2017-05-11T06:01:07.955Z,13.50
2017-05-11T06:03:36.247Z,13.60
2017-05-11T06:06:05.263Z,13.60
2017-05-11T06:08:33.573Z,13.60
2017-05-11T06:11:01.845Z,13.60
2017-05-11T06:13:30.124Z,13.60
2017-05-11T06:15:58.415Z,13.60
2017-05-11T06:18:26.695Z,13.60
2017-05-11T06:20:55.051Z,13.70
2017-05-11T06:23:23.323Z,13.70
2017-05-11T06:25:51.612Z,13.70
2017-05-11T06:28:19.884Z,13.70
2017-05-11T06:30:48.172Z,13.80
2017-05-11T06:33:16.451Z,13.80
2017-05-11T06:35:44.806Z,13.80
2017-05-11T06:38:13.171Z,13.80
2017-05-11T06:40:41.459Z,13.90
2017-05-11T06:43:09.746Z,14.00
2017-05-11T06:45:38.035Z,14.10
2017-05-11T06:48:06.335Z,14.10
2017-05-11T06:50:35.347Z,14.10
2017-05-11T06:53:03.639Z,14.20
2017-05-11T06:55:31.911Z,14.30
2017-05-11T06:58:00.516Z,14.30
2017-05-11T07:00:28.799Z,14.30
2017-05-11T07:02:57.172Z,14.40
2017-05-11T07:05:25.531Z,14.40
2017-05-11T07:07:53.806Z,14.50
2017-05-11T07:10:22.097Z,14.40
2017-05-11T07:12:50.371Z,14.40
2017-05-11T07:15:18.663Z,14.40
2017-05-11T07:17:47.772Z,14.30
2017-05-11T07:20:16.084Z,14.30
2017-05-11T07:22:44.379Z,14.30
2017-05-11T07:25:12.674Z,14.30
2017-05-11T07:27:41.055Z,14.30
2017-05-11T07:30:09.327Z,14.30
2017-05-11T07:32:37.619Z,14.40
2017-05-11T07:35:06.512Z,14.40
2017-05-11T07:37:34.803Z,14.50
2017-05-11T07:40:03.080Z,14.50
2017-05-11T07:42:31.371Z,14.50
2017-05-11T07:45:00.426Z,14.50
2017-05-11T07:47:28.895Z,14.50
2017-05-11T07:49:57.168Z,14.50
2017-05-11T07:52:26.264Z,14.60
2017-05-11T07:54:54.543Z,14.60
2017-05-11T07:57:23.478Z,14.70
2017-05-11T07:59:51.812Z,14.70
2017-05-11T08:02:20.091Z,14.80
2017-05-11T08:04:48.475Z,14.80
2017-05-11T08:07:16.857Z,14.80
2017-05-11T08:09:45.147Z,14.80
2017-05-11T08:12:13.711Z,14.90
2017-05-11T08:14:42.012Z,14.90
2017-05-11T08:17:10.279Z,15.00
2017-05-11T08:19:39.039Z,15.10
2017-05-11T08:22:07.419Z,15.20
2017-05-11T08:24:35.690Z,15.20
2017-05-11T08:27:03.980Z,15.40
2017-05-11T08:29:32.255Z,15.50
2017-05-11T08:32:00.635Z,15.50
2017-05-11T08:34:28.908Z,15.60
2017-05-11T08:36:57.279Z,15.70
2017-05-11T08:39:25.556Z,15.80
2017-05-11T08:41:53.932Z,15.80
2017-05-11T08:44:22.216Z,15.90
2017-05-11T08:46:50.492Z,15.90
2017-05-11T08:49:18.864Z,16.00
2017-05-11T08:51:47.239Z,16.00
2017-05-11T08:54:15.627Z,16.10
2017-05-11T08:56:43.903Z,16.20
2017-05-11T08:59:12.272Z,16.30
2017-05-11T09:01:40.652Z,16.30
2017-05-11T09:04:08.942Z,16.30
2017-05-11T09:06:37.215Z,16.20
2017-05-11T09:09:05.508Z,16.30
2017-05-11T09:11:33.860Z,16.20
2017-05-11T09:14:02.236Z,16.10
2017-05-11T09:16:30.523Z,16.20
2017-05-11T09:18:58.798Z,16.20
2017-05-11T09:21:27.101Z,16.30
2017-05-11T09:23:55.440Z,16.40
2017-05-11T09:26:23.727Z,16.50
2017-05-11T09:28:52.012Z,16.60
2017-05-11T09:31:20.320Z,16.70
2017-05-11T09:33:49.335Z,16.80
2017-05-11T09:36:17.608Z,16.90
2017-05-11T09:38:45.900Z,17.10
2017-05-11T09:41:14.187Z,17.20
2017-05-11T09:43:42.475Z,17.30
2017-05-11T09:46:10.844Z,17.40
2017-05-11T09:48:39.219Z,17.50
2017-05-11T09:51:07.495Z,17.70
2017-05-11T09:53:35.876Z,17.90
2017-05-11T09:56:04.147Z,18.10
2017-05-11T09:58:32.455Z,18.20
2017-05-11T10:01:00.803Z,18.40
2017-05-11T10:03:29.075Z,18.50
2017-05-11T10:05:57.664Z,18.80
2017-05-11T10:08:25.940Z,19.10
2017-05-11T10:10:54.232Z,19.50
2017-05-11T10:13:22.587Z,20.10
2017-05-11T10:15:50.875Z,21.00
2017-05-11T10:18:19.152Z,22.10
2017-05-11T10:20:47.567Z,22.90
2017-05-11T10:23:16.579Z,23.40
2017-05-11T10:25:44.856Z,24.10
2017-05-11T10:28:13.147Z,25.10
2017-05-11T10:30:41.423Z,25.70
2017-05-11T10:33:09.820Z,26.20
2017-05-11T10:35:38.095Z,27.00
2017-05-11T10:38:06.383Z,27.50
2017-05-11T10:40:34.667Z,28.30
2017-05-11T10:43:03.026Z,29.00
2017-05-11T10:45:31.407Z,29.20
2017-05-11T10:47:59.700Z,28.90
2017-05-11T10:50:28.599Z,28.70
2017-05-11T10:52:56.947Z,28.80
2017-05-11T10:55:25.324Z,29.40
2017-05-11T10:57:53.596Z,30.20
2017-05-11T11:00:21.988Z,30.70
2017-05-11T11:02:51.172Z,30.10
2017-05-11T11:05:19.462Z,30.40
2017-05-11T11:07:48.395Z,30.40
2017-05-11T11:10:18.933Z,30.30
2017-05-11T11:12:47.964Z,29.90
2017-05-11T11:15:16.244Z,29.90
2017-05-11T11:17:44.620Z,30.00
2017-05-11T11:20:13.674Z,30.50
2017-05-11T11:22:42.809Z,31.20
2017-05-11T11:25:11.094Z,32.00
2017-05-11T11:27:39.382Z,32.60
2017-05-11T11:30:07.735Z,32.40
2017-05-11T11:32:36.024Z,31.90
2017-05-11T11:35:04.411Z,31.20
2017-05-11T11:37:32.772Z,30.40
2017-05-11T11:40:01.044Z,29.20
2017-05-11T11:42:29.351Z,28.60
2017-05-11T11:44:57.629Z,27.70
2017-05-11T11:47:26.080Z,26.90
2017-05-11T11:49:54.376Z,26.30
2017-05-11T11:52:22.731Z,25.80
2017-05-11T11:54:51.112Z,25.40
2017-05-11T11:57:20.083Z,25.10
2017-05-11T11:59:48.935Z,24.90
2017-05-11T12:02:17.207Z,24.70
2017-05-11T12:04:45.512Z,24.40
2017-05-11T12:07:13.797Z,24.10
2017-05-11T12:09:42.095Z,24.00
2017-05-11T12:12:10.983Z,23.90
2017-05-11T12:14:39.259Z,23.90
2017-05-11T12:17:07.639Z,23.80
2017-05-11T12:19:36.023Z,23.70
2017-05-11T12:22:04.395Z,23.70
2017-05-11T12:24:33.183Z,23.50
2017-05-11T12:27:02.303Z,23.40
2017-05-11T12:29:30.767Z,23.40
2017-05-11T12:31:59.040Z,23.30
2017-05-11T12:34:27.412Z,23.20
2017-05-11T12:36:55.792Z,23.10
2017-05-11T12:39:24.079Z,23.10
2017-05-11T12:41:52.351Z,23.00
2017-05-11T12:44:20.638Z,23.10
2017-05-11T12:46:48.995Z,23.10
2017-05-11T12:49:17.288Z,23.00
2017-05-11T12:51:45.564Z,23.00
2017-05-11T12:54:13.863Z,23.00
2017-05-11T12:56:42.136Z,23.10
2017-05-11T12:59:10.407Z,23.00
2017-05-11T13:01:38.755Z,23.00
2017-05-11T13:04:07.127Z,23.10
2017-05-11T13:06:35.507Z,23.20
2017-05-11T13:09:03.792Z,23.30
2017-05-11T13:11:32.079Z,23.30
2017-05-11T13:14:00.351Z,23.30
2017-05-11T13:16:28.716Z,23.30
2017-05-11T13:18:56.999Z,23.20
2017-05-11T13:21:25.272Z,23.40
2017-05-11T13:23:53.644Z,23.40
2017-05-11T13:26:22.270Z,23.40
2017-05-11T13:28:50.560Z,23.50
2017-05-11T13:31:20.314Z,23.60
2017-05-11T13:33:48.600Z,23.60
2017-05-11T13:36:16.876Z,23.60
2017-05-11T13:38:45.168Z,23.70
2017-05-11T13:41:13.443Z,23.80
2017-05-11T13:43:41.736Z,23.80
2017-05-11T13:46:10.009Z,23.70
2017-05-11T13:48:38.311Z,23.60
2017-05-11T13:51:06.589Z,23.40
2017-05-11T13:53:34.876Z,23.30
2017-05-11T13:56:03.180Z,23.30
2017-05-11T13:58:31.456Z,23.20
2017-05-11T14:00:59.748Z,23.30
2017-05-11T14:03:28.024Z,23.20
2017-05-11T14:05:56.315Z,23.10
2017-05-11T14:08:24.587Z,23.00
2017-05-11T14:10:52.933Z,22.90
2017-05-11T14:13:21.213Z,22.90
2017-05-11T14:15:49.600Z,22.80
2017-05-11T14:18:17.892Z,22.70
2017-05-11T14:20:46.163Z,22.60
2017-05-11T14:23:14.459Z,22.50
2017-05-11T14:25:43.475Z,22.40
2017-05-11T14:28:11.759Z,22.30
2017-05-11T14:30:40.032Z,22.30
2017-05-11T14:33:08.332Z,22.10
2017-05-11T14:35:36.608Z,22.10
2017-05-11T14:38:04.989Z,21.90
2017-05-11T14:40:33.260Z,21.80
2017-05-11T14:43:01.639Z,21.70
2017-05-11T14:45:30.019Z,21.70
2017-05-11T14:47:58.296Z,21.70
2017-05-11T14:50:26.677Z,21.60
2017-05-11T14:52:55.051Z,21.50
2017-05-11T14:55:23.798Z,21.50
2017-05-11T14:57:52.319Z,21.50
2017-05-11T15:00:20.695Z,21.40
2017-05-11T15:02:48.976Z,21.30
2017-05-11T15:05:17.267Z,21.20
2017-05-11T15:07:45.627Z,21.30
2017-05-11T15:10:14.383Z,21.30
2017-05-11T15:12:42.687Z,21.20
2017-05-11T15:15:10.959Z,20.80
2017-05-11T15:17:39.248Z,20.50
2017-05-11T15:20:07.524Z,20.20
2017-05-11T15:22:36.025Z,20.00
2017-05-11T15:25:04.299Z,19.90
2017-05-11T15:27:32.653Z,19.80
2017-05-11T15:30:00.934Z,19.80
2017-05-11T15:32:29.811Z,19.60
2017-05-11T15:34:59.423Z,19.60
2017-05-11T15:37:27.810Z,19.60
2017-05-11T15:39:56.087Z,19.60
2017-05-11T15:42:24.380Z,19.70
2017-05-11T15:44:52.676Z,19.80
2017-05-11T15:47:21.690Z,19.80
2017-05-11T15:49:49.986Z,20.00
2017-05-11T15:52:18.828Z,20.20
2017-05-11T15:54:47.128Z,20.30
2017-05-11T15:57:15.440Z,20.40
2017-05-11T15:59:43.924Z,20.60
2017-05-11T16:02:12.299Z,20.80
2017-05-11T16:04:41.195Z,20.90
2017-05-11T16:07:09.577Z,21.00
2017-05-11T16:09:37.876Z,21.10
2017-05-11T16:12:06.219Z,21.20
2017-05-11T16:14:34.513Z,21.20
2017-05-11T16:17:03.507Z,21.30
2017-05-11T16:19:31.812Z,21.10
2017-05-11T16:22:01.371Z,20.70
2017-05-11T16:24:29.639Z,20.40
2017-05-11T16:26:58.127Z,20.20
2017-05-11T16:29:27.157Z,20.10
2017-05-11T16:31:55.435Z,19.80
2017-05-11T16:34:23.712Z,19.70
2017-05-11T16:36:52.619Z,19.70
2017-05-11T16:39:21.631Z,19.60
2017-05-11T16:41:49.919Z,19.50
2017-05-11T16:44:18.191Z,19.40
2017-05-11T16:46:46.484Z,19.40
2017-05-11T16:49:15.079Z,19.30
2017-05-11T16:51:43.751Z,19.30
2017-05-11T16:54:12.040Z,19.20
2017-05-11T16:56:40.404Z,19.20
2017-05-11T16:59:08.883Z,19.10
2017-05-11T17:01:37.259Z,19.10
2017-05-11T17:04:05.654Z,19.00
2017-05-11T17:06:34.016Z,19.10
2017-05-11T17:09:02.399Z,19.00
2017-05-11T17:11:31.291Z,18.90
2017-05-11T17:13:59.579Z,18.90
2017-05-11T17:16:27.859Z,18.80
2017-05-11T17:18:56.979Z,18.80
2017-05-11T17:21:25.997Z,18.70
2017-05-11T17:23:54.311Z,18.80
2017-05-11T17:26:22.608Z,18.80
2017-05-11T17:28:50.951Z,18.80
2017-05-11T17:31:19.340Z,18.80
2017-05-11T17:33:47.715Z,18.90
2017-05-11T17:36:16.097Z,18.90
2017-05-11T17:38:44.376Z,18.90
2017-05-11T17:41:12.749Z,18.90
2017-05-11T17:43:41.460Z,18.80
2017-05-11T17:46:09.779Z,18.80
2017-05-11T17:48:38.087Z,18.90
2017-05-11T17:51:06.359Z,18.90
2017-05-11T17:53:34.647Z,18.90
2017-05-11T17:56:03.839Z,19.00
2017-05-11T17:58:32.132Z,18.90
2017-05-11T18:01:00.412Z,18.90
2017-05-11T18:03:28.762Z,18.90
2017-05-11T18:05:57.035Z,18.80
2017-05-11T18:08:25.323Z,18.70
2017-05-11T18:10:53.596Z,18.60
2017-05-11T18:13:21.973Z,18.60
2017-05-11T18:15:50.247Z,18.50
2017-05-11T18:18:18.519Z,18.40
2017-05-11T18:20:46.815Z,18.40
2017-05-11T18:23:15.180Z,18.30
2017-05-11T18:25:43.476Z,18.20
2017-05-11T18:28:11.832Z,18.20
2017-05-11T18:30:40.118Z,18.10
2017-05-11T18:33:09.119Z,18.00
2017-05-11T18:35:37.421Z,17.90
2017-05-11T18:38:07.295Z,17.80
2017-05-11T18:40:35.568Z,17.80
2017-05-11T18:43:03.851Z,17.70
2017-05-11T18:45:32.123Z,17.70
2017-05-11T18:48:00.471Z,17.70
2017-05-11T18:50:28.747Z,17.60
2017-05-11T18:52:57.035Z,17.50
2017-05-11T18:55:25.316Z,17.50
2017-05-11T18:57:53.610Z,17.50
2017-05-11T19:00:21.982Z,17.50
2017-05-11T19:02:50.287Z,17.40
2017-05-11T19:05:18.563Z,17.40
2017-05-11T19:07:46.905Z,17.30
2017-05-11T19:10:15.199Z,17.30
2017-05-11T19:12:43.476Z,17.30
2017-05-11T19:15:11.767Z,17.30
2017-05-11T19:17:40.039Z,17.30
2017-05-11T19:20:08.383Z,17.20
2017-05-11T19:22:36.655Z,17.20
2017-05-11T19:25:04.951Z,17.20
2017-05-11T19:27:34.440Z,17.20
2017-05-11T19:30:02.717Z,17.10
2017-05-11T19:32:31.096Z,17.10
2017-05-11T19:34:59.473Z,17.10
2017-05-11T19:37:27.848Z,17.00
2017-05-11T19:39:56.119Z,17.00
2017-05-11T19:42:24.435Z,17.00
2017-05-11T19:44:52.984Z,17.00
2017-05-11T19:47:21.364Z,17.00
2017-05-11T19:49:50.043Z,16.90
2017-05-11T19:52:18.423Z,16.90
2017-05-11T19:54:46.803Z,16.90
2017-05-11T19:57:15.076Z,16.90
2017-05-11T19:59:43.456Z,16.90
2017-05-11T20:02:11.727Z,16.90
2017-05-11T20:04:40.017Z,16.90
2017-05-11T20:07:08.292Z,16.90
2017-05-11T20:09:37.100Z,16.90
2017-05-11T20:12:05.384Z,16.90
2017-05-11T20:14:34.464Z,16.90
2017-05-11T20:17:03.409Z,16.90
2017-05-11T20:19:31.683Z,16.90
2017-05-11T20:21:59.983Z,16.80
2017-05-11T20:24:28.253Z,16.80
2017-05-11T20:26:56.639Z,16.70
2017-05-11T20:29:24.912Z,16.70
2017-05-11T20:31:53.292Z,16.70
2017-05-11T20:34:21.674Z,16.70
2017-05-11T20:36:50.357Z,16.70
2017-05-11T20:39:18.735Z,16.70
2017-05-11T20:41:48.053Z,16.70
2017-05-11T20:44:16.328Z,16.60
2017-05-11T20:46:44.692Z,16.60
2017-05-11T20:49:12.982Z,16.60
2017-05-11T20:51:41.343Z,16.50
2017-05-11T20:54:09.723Z,16.50
2017-05-11T20:56:38.000Z,16.50
2017-05-11T20:59:06.287Z,16.50
2017-05-11T21:01:34.563Z,16.50
2017-05-11T21:04:03.440Z,16.40
2017-05-11T21:06:32.539Z,16.40
2017-05-11T21:09:00.910Z,16.40
2017-05-11T21:11:29.286Z,16.40
2017-05-11T21:13:57.659Z,16.40
2017-05-11T21:16:25.930Z,16.30
2017-05-11T21:18:54.214Z,16.30
2017-05-11T21:21:23.071Z,16.30
2017-05-11T21:23:51.348Z,16.40
2017-05-11T21:26:19.660Z,16.40
2017-05-11T21:28:48.447Z,16.40
2017-05-11T21:31:16.731Z,16.40
2017-05-11T21:33:45.711Z,16.30
2017-05-11T21:36:13.997Z,16.30
2017-05-11T21:38:42.491Z,16.40
2017-05-11T21:41:10.783Z,16.30
2017-05-11T21:43:39.129Z,16.30
2017-05-11T21:46:08.339Z,16.30
2017-05-11T21:48:36.700Z,16.30
2017-05-11T21:51:05.176Z,16.30
2017-05-11T21:53:33.559Z,16.30
2017-05-11T21:56:01.832Z,16.30
2017-05-11T21:58:30.211Z,16.30
2017-05-11T22:00:58.591Z,16.30
2017-05-11T22:03:26.968Z,16.30
2017-05-11T22:05:55.243Z,16.40
2017-05-11T22:08:23.833Z,16.30
2017-05-11T22:10:52.108Z,16.30
2017-05-11T22:13:20.408Z,16.30
2017-05-11T22:15:48.684Z,16.20
2017-05-11T22:18:16.952Z,16.20
2017-05-11T22:20:45.240Z,16.10
2017-05-11T22:23:13.592Z,16.10
2017-05-11T22:25:41.960Z,16.10
2017-05-11T22:28:10.789Z,16.10
2017-05-11T22:30:39.075Z,16.10
2017-05-11T22:33:08.092Z,16.00
2017-05-11T22:35:36.383Z,16.10
2017-05-11T22:38:04.654Z,16.00
2017-05-11T22:40:33.035Z,16.00
2017-05-11T22:43:01.311Z,16.00
2017-05-11T22:45:29.599Z,15.90
2017-05-11T22:47:57.980Z,15.90
2017-05-11T22:50:26.292Z,15.90
2017-05-11T22:52:54.583Z,16.00
2017-05-11T22:55:23.609Z,15.80
2017-05-11T22:57:52.009Z,15.80
2017-05-11T23:00:20.317Z,15.80
2017-05-11T23:02:48.655Z,15.70
2017-05-11T23:05:16.929Z,15.70
2017-05-11T23:07:45.312Z,15.70
2017-05-11T23:10:13.586Z,15.70
2017-05-11T23:12:41.965Z,15.70
2017-05-11T23:15:10.243Z,15.70
2017-05-11T23:17:38.582Z,15.70
2017-05-11T23:20:06.872Z,15.70
2017-05-11T23:22:35.311Z,15.60
2017-05-11T23:25:03.656Z,15.60
2017-05-11T23:27:32.026Z,15.40
2017-05-11T23:30:00.315Z,15.40
2017-05-11T23:32:28.642Z,15.40
2017-05-11T23:34:57.675Z,15.30
2017-05-11T23:37:25.947Z,15.30
2017-05-11T23:39:54.281Z,15.30
2017-05-11T23:42:23.300Z,15.30
2017-05-11T23:44:51.575Z,15.30
2017-05-11T23:47:19.867Z,15.30
2017-05-11T23:49:48.147Z,15.10
2017-05-11T23:52:16.529Z,15.10
2017-05-11T23:54:44.903Z,15.10
2017-05-11T23:57:13.283Z,15.10
2017-05-11T23:59:42.206Z,15.10
